Time;durP1;ratioP1;P1;durP2;ratioP2;P2;SDS_P1;SDS_P2;PMS_P1;PMS_P2;Temp;Humidity;BMP_temperature;BMP_pressure;BME280_temperature;BME280_humidity;BME280_pressure;Samples;Min_cycle;Max_cycle;Signal;HPM_P1;HPM_P2
2021/12/13 00:00:35;;;;;;;;;35.00;32.00;;;;;;;;4979713;28;10073;-80
2021/12/13 00:03:13;;;;;;;;;41.00;38.25;;;;;;;;4971468;28;10838;-77
2021/12/13 00:05:43;;;;;;;;;38.75;35.25;;;;;;;;4986116;28;11210;-81
2021/12/13 00:08:15;;;;;;;;;43.25;34.75;;;;;;;;4977685;28;10101;-77
2021/12/13 00:10:46;;;;;;;;;35.25;31.00;;;;;;;;4975832;28;10394;-80
2021/12/13 00:13:17;;;;;;;;;39.50;34.50;;;;;;;;4981035;28;10191;-76
2021/12/13 00:15:51;;;;;;;;;35.00;33.50;;;;;;;;4984512;28;10458;-77
2021/12/13 00:18:23;;;;;;;;;46.25;37.75;;;;;;;;4987082;28;10140;-76
2021/12/13 00:20:58;;;;;;;;;40.25;34.50;;;;;;;;4975620;28;10341;-76
2021/12/13 00:23:29;;;;;;;;;38.00;36.25;;;;;;;;4974367;28;10341;-81
2021/12/13 00:25:59;;;;;;;;;44.75;38.00;;;;;;;;4978001;28;10227;-75
2021/12/13 00:28:28;;;;;;;;;40.75;37.75;;;;;;;;4979862;28;10159;-81
2021/12/13 00:31:19;;;;;;;;;42.50;39.00;;;;;;;;4983206;28;10339;-77
2021/12/13 00:34:11;;;;;;;;;37.50;34.75;;;;;;;;4987006;28;10302;-78
2021/12/13 00:36:42;;;;;;;;;37.50;35.50;;;;;;;;4979332;28;10615;-76
2021/12/13 00:39:14;;;;;;;;;41.00;36.75;;;;;;;;4972626;28;10400;-79
2021/12/13 00:41:46;;;;;;;;;40.00;36.75;;;;;;;;4978582;28;10317;-80
2021/12/13 00:44:17;;;;;;;;;39.50;33.50;;;;;;;;4985046;28;10238;-83
2021/12/13 00:46:47;;;;;;;;;37.75;34.50;;;;;;;;4985553;28;10229;-78
2021/12/13 00:49:17;;;;;;;;;27.00;24.50;;;;;;;;4972828;28;10475;-77
2021/12/13 00:51:47;;;;;;;;;35.00;31.00;;;;;;;;4979692;28;10143;-77
2021/12/13 00:54:17;;;;;;;;;42.25;36.00;;;;;;;;4985048;28;10139;-80
2021/12/13 00:57:18;;;;;;;;;21.25;18.50;;;;;;;;4983633;28;10256;-78
2021/12/13 00:59:50;;;;;;;;;35.75;29.50;;;;;;;;4974685;28;10122;-77
2021/12/13 01:02:21;;;;;;;;;28.25;27.25;;;;;;;;4979905;28;10096;-78
2021/12/13 01:05:05;;;;;;;;;30.50;26.75;;;;;;;;4977118;28;10067;-81
2021/12/13 01:08:16;;;;;;;;;41.00;33.25;;;;;;;;4978448;28;10066;-77
2021/12/13 01:11:17;;;;;;;;;35.25;30.25;;;;;;;;4982351;28;10224;-82
2021/12/13 01:14:06;;;;;;;;;29.50;27.50;;;;;;;;4940381;28;10027;-76
2021/12/13 01:16:52;;;;;;;;;31.25;30.00;;;;;;;;4981094;28;10299;-82
2021/12/13 01:19:32;;;;;;;;;34.75;34.00;;;;;;;;4968878;28;10147;-82
2021/12/13 01:22:30;;;;;;;;;38.75;35.00;;;;;;;;4979084;28;10380;-75
2021/12/13 01:25:17;;;;;;;;;36.75;33.00;;;;;;;;4976220;28;10125;-80
2021/12/13 01:27:49;;;;;;;;;37.25;32.00;;;;;;;;4984568;28;10298;-77
2021/12/13 01:30:20;;;;;;;;;35.25;31.50;;;;;;;;4978617;28;10267;-77
2021/12/13 01:32:50;;;;;;;;;31.00;29.00;;;;;;;;4979535;28;10229;-81
2021/12/13 01:35:25;;;;;;;;;37.25;33.75;;;;;;;;4974849;28;10279;-76
2021/12/13 01:37:54;;;;;;;;;34.75;31.75;;;;;;;;4979574;28;11100;-80
2021/12/13 01:40:25;;;;;;;;;35.75;31.50;;;;;;;;4974706;28;10254;-82
2021/12/13 01:43:00;;;;;;;;;30.25;28.50;;;;;;;;4977075;28;10311;-77
2021/12/13 01:45:28;;;;;;;;;36.00;33.75;;;;;;;;4980628;28;10326;-78
2021/12/13 01:47:56;;;;;;;;;30.00;27.50;;;;;;;;4979081;28;10384;-77
2021/12/13 01:50:29;;;;;;;;;34.00;31.75;;;;;;;;4976898;28;10314;-77
2021/12/13 01:52:58;;;;;;;;;36.50;36.25;;;;;;;;4985604;28;10209;-79
2021/12/13 01:55:30;;;;;;;;;42.75;33.00;;;;;;;;4980639;28;10487;-79
2021/12/13 01:58:19;;;;;;;;;32.75;29.50;;;;;;;;4983467;28;10304;-76
2021/12/13 02:03:43;;;;;;;;;32.75;32.75;;;;;;;;4988327;28;10189;-82
2021/12/13 02:06:16;;;;;;;;;34.25;30.00;;;;;;;;4979777;28;10438;-76
2021/12/13 02:08:44;;;;;;;;;25.75;23.75;;;;;;;;4978636;28;10413;-76
2021/12/13 02:11:11;;;;;;;;;33.00;30.75;;;;;;;;4980557;28;10315;-82
2021/12/13 02:13:48;;;;;;;;;31.00;26.50;;;;;;;;4979430;28;10162;-81
2021/12/13 02:19:02;;;;;;;;;33.75;32.00;;;;;;;;4977104;28;10331;-76
2021/12/13 02:21:34;;;;;;;;;28.25;26.75;;;;;;;;4973461;28;10171;-75
2021/12/13 02:24:06;;;;;;;;;30.50;30.50;;;;;;;;4977394;28;10221;-80
2021/12/13 02:26:36;;;;;;;;;34.25;32.00;;;;;;;;4974084;28;10323;-76
2021/12/13 02:29:06;;;;;;;;;23.25;23.00;;;;;;;;4979241;28;10192;-82
2021/12/13 02:31:36;;;;;;;;;33.25;30.00;;;;;;;;4980477;28;10247;-76
2021/12/13 02:34:06;;;;;;;;;26.50;26.50;;;;;;;;4975122;28;10346;-78
2021/12/13 02:36:36;;;;;;;;;38.00;29.00;;;;;;;;4981341;28;10241;-78
2021/12/13 02:39:09;;;;;;;;;38.50;29.50;;;;;;;;4982022;28;10470;-75
2021/12/13 02:41:37;;;;;;;;;34.00;28.50;;;;;;;;4971866;28;10225;-75
2021/12/13 02:44:10;;;;;;;;;28.50;27.75;;;;;;;;4971142;28;10159;-81
2021/12/13 02:46:39;;;;;;;;;27.75;24.50;;;;;;;;4981719;28;10115;-77
2021/12/13 02:49:09;;;;;;;;;29.00;27.00;;;;;;;;4988478;28;10233;-83
2021/12/13 02:51:39;;;;;;;;;32.50;26.50;;;;;;;;4981742;28;10247;-80
2021/12/13 02:54:11;;;;;;;;;24.00;20.50;;;;;;;;4978653;28;10327;-75
2021/12/13 02:56:42;;;;;;;;;30.75;28.25;;;;;;;;4985015;28;10282;-75
2021/12/13 02:59:11;;;;;;;;;32.00;31.75;;;;;;;;4980600;28;10184;-77
2021/12/13 03:01:42;;;;;;;;;30.25;25.75;;;;;;;;4983215;28;10242;-77
2021/12/13 03:04:13;;;;;;;;;27.75;22.00;;;;;;;;4978046;28;10253;-79
2021/12/13 03:06:43;;;;;;;;;28.75;28.25;;;;;;;;4983650;28;10212;-77
2021/12/13 03:09:17;;;;;;;;;28.50;24.00;;;;;;;;4975135;28;10452;-79
2021/12/13 03:11:46;;;;;;;;;35.50;28.00;;;;;;;;4973989;28;10313;-75
2021/12/13 03:14:16;;;;;;;;;26.00;25.00;;;;;;;;4982684;28;10296;-76
2021/12/13 03:16:47;;;;;;;;;24.00;23.75;;;;;;;;4981928;28;11133;-84
2021/12/13 03:19:26;;;;;;;;;26.50;22.75;;;;;;;;4978005;28;10165;-76
2021/12/13 03:22:31;;;;;;;;;28.50;24.00;;;;;;;;4978595;28;10243;-80
2021/12/13 03:25:09;;;;;;;;;19.50;19.50;;;;;;;;4983175;28;11071;-80
2021/12/13 03:28:12;;;;;;;;;26.25;26.00;;;;;;;;4974177;28;10230;-77
2021/12/13 03:30:57;;;;;;;;;30.00;26.50;;;;;;;;4980477;28;10250;-81
2021/12/13 03:33:31;;;;;;;;;25.75;21.75;;;;;;;;4981868;28;10262;-78
2021/12/13 03:36:02;;;;;;;;;25.25;24.00;;;;;;;;4983328;28;10355;-81
2021/12/13 03:38:33;;;;;;;;;20.50;20.50;;;;;;;;4979547;28;10400;-79
2021/12/13 03:41:07;;;;;;;;;31.75;23.00;;;;;;;;4977505;28;10427;-76
2021/12/13 03:43:39;;;;;;;;;23.50;22.25;;;;;;;;4974821;28;10387;-76
2021/12/13 03:46:08;;;;;;;;;22.75;21.25;;;;;;;;4985141;28;10418;-77
2021/12/13 03:48:37;;;;;;;;;26.00;23.50;;;;;;;;4983297;28;10322;-80
2021/12/13 03:51:09;;;;;;;;;19.00;19.00;;;;;;;;4983702;28;10250;-81
2021/12/13 03:53:37;;;;;;;;;27.00;25.25;;;;;;;;4980693;28;11178;-83
2021/12/13 03:56:09;;;;;;;;;21.50;17.75;;;;;;;;4981777;28;10175;-82
2021/12/13 03:58:39;;;;;;;;;28.25;26.75;;;;;;;;4974455;28;10918;-78
2021/12/13 04:01:10;;;;;;;;;27.25;26.75;;;;;;;;4978822;28;10151;-80
2021/12/13 04:03:38;;;;;;;;;27.25;22.50;;;;;;;;4985789;28;10266;-78
2021/12/13 04:06:06;;;;;;;;;27.00;22.50;;;;;;;;4983417;28;10821;-75
2021/12/13 04:08:34;;;;;;;;;31.00;24.75;;;;;;;;4984586;28;10247;-76
2021/12/13 04:11:04;;;;;;;;;22.25;20.50;;;;;;;;4984635;28;10334;-75
2021/12/13 04:13:36;;;;;;;;;26.00;18.00;;;;;;;;4980549;28;10256;-84
2021/12/13 04:16:13;;;;;;;;;22.25;21.50;;;;;;;;4976106;28;10984;-80
2021/12/13 04:21:42;;;;;;;;;23.25;21.75;;;;;;;;4985771;28;10198;-82
2021/12/13 04:24:13;;;;;;;;;27.25;22.00;;;;;;;;4963914;28;10252;-87
2021/12/13 04:26:44;;;;;;;;;24.50;22.75;;;;;;;;4984935;28;10166;-85
2021/12/13 04:29:17;;;;;;;;;21.50;19.75;;;;;;;;4980678;28;10085;-78
2021/12/13 04:31:45;;;;;;;;;31.00;24.00;;;;;;;;4974654;28;10137;-79
2021/12/13 04:34:12;;;;;;;;;31.50;21.50;;;;;;;;4983630;28;10104;-79
2021/12/13 04:36:44;;;;;;;;;31.75;25.75;;;;;;;;4981117;28;10329;-82
2021/12/13 04:39:17;;;;;;;;;22.25;21.00;;;;;;;;4973410;28;10221;-79
2021/12/13 04:41:48;;;;;;;;;25.50;21.75;;;;;;;;4972359;28;10392;-83
2021/12/13 04:44:20;;;;;;;;;22.75;21.25;;;;;;;;4976064;28;10171;-77
2021/12/13 04:46:52;;;;;;;;;26.50;23.50;;;;;;;;4978847;28;12563;-75
2021/12/13 04:49:23;;;;;;;;;22.00;21.00;;;;;;;;4982184;28;10304;-79
2021/12/13 04:51:56;;;;;;;;;24.00;23.75;;;;;;;;4977487;28;10243;-81
2021/12/13 04:54:25;;;;;;;;;18.00;16.25;;;;;;;;4976252;28;10165;-79
2021/12/13 04:56:53;;;;;;;;;25.00;21.50;;;;;;;;4975749;28;10183;-76
2021/12/13 04:59:22;;;;;;;;;18.50;18.25;;;;;;;;4984727;28;10248;-80
2021/12/13 05:01:53;;;;;;;;;18.75;18.75;;;;;;;;4989597;28;10200;-81
2021/12/13 05:04:22;;;;;;;;;21.00;20.00;;;;;;;;4982309;28;10088;-80
2021/12/13 05:06:51;;;;;;;;;23.50;22.25;;;;;;;;4987564;28;11079;-80
2021/12/13 05:09:21;;;;;;;;;19.50;18.75;;;;;;;;4981070;28;10228;-79
2021/12/13 05:11:51;;;;;;;;;23.00;19.25;;;;;;;;4974230;28;10071;-80
2021/12/13 05:14:31;;;;;;;;;22.00;18.25;;;;;;;;4975362;28;10105;-77
2021/12/13 05:17:01;;;;;;;;;21.00;17.25;;;;;;;;4975898;28;10078;-77
2021/12/13 05:19:32;;;;;;;;;19.00;14.50;;;;;;;;4971510;28;10170;-76
2021/12/13 05:22:02;;;;;;;;;19.50;16.50;;;;;;;;4982427;28;9956;-79
2021/12/13 05:24:32;;;;;;;;;23.67;16.33;;;;;;;;4974203;28;10110;-76
2021/12/13 05:27:04;;;;;;;;;27.00;20.00;;;;;;;;4983283;28;9989;-77
2021/12/13 05:29:35;;;;;;;;;23.00;19.25;;;;;;;;4977806;28;10172;-76
2021/12/13 05:32:07;;;;;;;;;34.00;28.50;;;;;;;;4978700;28;10165;-75
2021/12/13 05:34:37;;;;;;;;;16.00;14.50;;;;;;;;4969664;28;10569;-80
2021/12/13 05:37:07;;;;;;;;;16.50;13.25;;;;;;;;4973320;28;10075;-80
2021/12/13 05:39:36;;;;;;;;;18.50;18.25;;;;;;;;4967433;28;10137;-78
2021/12/13 05:42:07;;;;;;;;;24.25;22.00;;;;;;;;4970872;28;10154;-77
2021/12/13 05:44:37;;;;;;;;;22.25;19.00;;;;;;;;4973190;28;10120;-75
2021/12/13 05:47:08;;;;;;;;;19.50;15.50;;;;;;;;4967360;28;10165;-76
2021/12/13 05:49:42;;;;;;;;;10.50;8.00;;;;;;;;4978126;28;10169;-83
2021/12/13 05:52:12;;;;;;;;;19.50;19.25;;;;;;;;4980620;28;10069;-80
2021/12/13 05:54:43;;;;;;;;;21.50;21.50;;;;;;;;4970532;28;10126;-80
2021/12/13 05:57:13;;;;;;;;;22.00;19.50;;;;;;;;4969340;28;10230;-78
2021/12/13 05:59:55;;;;;;;;;27.00;24.50;;;;;;;;4965126;28;10245;-78
2021/12/13 06:02:41;;;;;;;;;24.75;23.00;;;;;;;;4973989;28;10464;-78
2021/12/13 06:05:16;;;;;;;;;17.75;17.75;;;;;;;;4970781;28;10393;-80
2021/12/13 06:07:44;;;;;;;;;26.25;23.75;;;;;;;;4970380;28;10289;-78
2021/12/13 06:10:14;;;;;;;;;19.00;17.75;;;;;;;;4972753;28;10483;-78
2021/12/13 06:12:49;;;;;;;;;24.25;20.00;;;;;;;;4969877;28;10217;-79
2021/12/13 06:15:27;;;;;;;;;25.75;21.50;;;;;;;;4970994;28;10332;-78
2021/12/13 06:18:07;;;;;;;;;23.00;21.00;;;;;;;;4968090;28;10311;-80
2021/12/13 06:20:39;;;;;;;;;19.75;17.25;;;;;;;;4969067;28;10311;-82
2021/12/13 06:23:09;;;;;;;;;17.00;13.75;;;;;;;;4979648;28;10326;-77
2021/12/13 06:25:37;;;;;;;;;18.25;18.25;;;;;;;;4969880;28;10138;-77
2021/12/13 06:28:05;;;;;;;;;25.75;21.50;;;;;;;;4969929;28;10203;-76
2021/12/13 06:30:35;;;;;;;;;17.00;15.25;;;;;;;;4964171;28;10228;-78
2021/12/13 06:33:06;;;;;;;;;21.75;18.25;;;;;;;;4974036;28;10168;-80
2021/12/13 06:35:43;;;;;;;;;22.50;22.50;;;;;;;;4974025;28;10250;-76
2021/12/13 06:38:33;;;;;;;;;23.00;21.00;;;;;;;;4969844;28;10484;-76
2021/12/13 06:41:08;;;;;;;;;23.50;21.25;;;;;;;;4972162;28;10224;-79
2021/12/13 06:43:38;;;;;;;;;31.50;29.00;;;;;;;;4970191;28;10253;-78
2021/12/13 06:46:09;;;;;;;;;26.00;24.00;;;;;;;;4978407;28;10310;-76
2021/12/13 06:48:40;;;;;;;;;30.50;26.50;;;;;;;;4975470;28;10339;-78
2021/12/13 06:51:10;;;;;;;;;27.25;22.50;;;;;;;;4977032;28;10500;-81
2021/12/13 06:53:38;;;;;;;;;26.00;22.75;;;;;;;;4982679;28;10160;-78
2021/12/13 06:56:24;;;;;;;;;22.75;19.25;;;;;;;;4974219;28;10067;-77
2021/12/13 06:58:54;;;;;;;;;26.50;21.00;;;;;;;;4984161;28;10362;-77
2021/12/13 07:01:23;;;;;;;;;20.00;17.75;;;;;;;;4979656;28;10161;-76
2021/12/13 07:03:58;;;;;;;;;24.00;21.00;;;;;;;;4985866;28;10223;-77
2021/12/13 07:06:26;;;;;;;;;24.75;20.75;;;;;;;;4984661;28;10216;-76
2021/12/13 07:09:10;;;;;;;;;26.00;23.25;;;;;;;;4978680;28;10085;-76
2021/12/13 07:11:47;;;;;;;;;20.00;19.50;;;;;;;;4984559;28;10357;-76
2021/12/13 07:14:16;;;;;;;;;25.00;18.00;;;;;;;;4973095;28;10134;-76
2021/12/13 07:16:49;;;;;;;;;16.50;16.50;;;;;;;;4979820;28;10217;-82
2021/12/13 07:19:22;;;;;;;;;21.25;18.75;;;;;;;;4983168;28;10324;-73
2021/12/13 07:21:56;;;;;;;;;25.75;25.50;;;;;;;;4970201;28;11165;-76
2021/12/13 07:24:40;;;;;;;;;23.00;21.00;;;;;;;;4980522;28;10553;-76
2021/12/13 07:27:11;;;;;;;;;20.25;18.00;;;;;;;;4975807;28;10430;-74
2021/12/13 07:29:43;;;;;;;;;22.25;21.00;;;;;;;;4984570;28;11103;-75
2021/12/13 07:32:16;;;;;;;;;22.00;22.00;;;;;;;;4984365;28;10224;-75
2021/12/13 07:35:06;;;;;;;;;21.00;20.00;;;;;;;;4985740;28;10414;-76
2021/12/13 07:37:38;;;;;;;;;31.00;31.00;;;;;;;;4985459;28;10295;-75
2021/12/13 07:40:32;;;;;;;;;22.50;22.00;;;;;;;;4978388;28;10619;-76
2021/12/13 07:43:05;;;;;;;;;31.75;28.25;;;;;;;;4970889;28;10628;-76
2021/12/13 07:45:38;;;;;;;;;27.25;27.00;;;;;;;;4988628;28;10455;-75
2021/12/13 07:48:10;;;;;;;;;23.50;21.50;;;;;;;;4978584;28;10491;-76
2021/12/13 07:50:39;;;;;;;;;23.50;20.75;;;;;;;;4988737;28;10408;-75
2021/12/13 07:53:10;;;;;;;;;26.50;22.75;;;;;;;;4980641;28;10379;-75
2021/12/13 07:55:46;;;;;;;;;22.75;21.00;;;;;;;;4971462;28;10428;-75
2021/12/13 07:58:17;;;;;;;;;18.75;14.00;;;;;;;;4987682;28;10178;-75
2021/12/13 08:00:46;;;;;;;;;19.25;18.00;;;;;;;;4981309;28;10193;-75
2021/12/13 08:03:17;;;;;;;;;18.00;18.00;;;;;;;;4988115;28;10218;-75
2021/12/13 08:05:47;;;;;;;;;23.25;21.25;;;;;;;;4978271;28;10347;-74
2021/12/13 08:08:20;;;;;;;;;16.50;16.50;;;;;;;;4979586;28;10288;-75
2021/12/13 08:10:49;;;;;;;;;22.00;19.50;;;;;;;;4986011;28;10333;-75
2021/12/13 08:13:19;;;;;;;;;20.00;17.00;;;;;;;;4982916;28;11024;-75
2021/12/13 08:15:49;;;;;;;;;19.75;16.50;;;;;;;;4971790;28;10200;-75
2021/12/13 08:18:26;;;;;;;;;19.50;14.75;;;;;;;;4984493;28;10148;-75
2021/12/13 08:20:56;;;;;;;;;26.00;18.00;;;;;;;;4990711;28;10162;-74
2021/12/13 08:23:27;;;;;;;;;16.25;14.00;;;;;;;;4983449;28;10526;-74
2021/12/13 08:25:57;;;;;;;;;21.50;16.25;;;;;;;;4984909;28;10242;-75
2021/12/13 08:28:35;;;;;;;;;17.50;15.50;;;;;;;;4981341;28;10053;-75
2021/12/13 08:31:05;;;;;;;;;26.75;20.75;;;;;;;;4987448;28;10167;-74
2021/12/13 08:33:38;;;;;;;;;27.25;21.25;;;;;;;;4985579;28;10434;-75
2021/12/13 08:36:09;;;;;;;;;22.50;22.50;;;;;;;;4977761;28;10533;-74
2021/12/13 08:38:41;;;;;;;;;10.75;8.50;;;;;;;;4976120;28;10600;-75
2021/12/13 08:41:26;;;;;;;;;18.25;12.50;;;;;;;;4967555;28;10066;-75
2021/12/13 08:43:56;;;;;;;;;13.50;12.25;;;;;;;;4979240;28;9967;-75
2021/12/13 08:46:32;;;;;;;;;13.00;12.00;;;;;;;;4984013;28;9893;-75
2021/12/13 08:49:11;;;;;;;;;16.00;12.75;;;;;;;;4974537;28;9974;-75
2021/12/13 08:51:58;;;;;;;;;10.50;10.50;;;;;;;;4977956;28;10883;-75
2021/12/13 08:54:39;;;;;;;;;13.50;11.75;;;;;;;;4973274;28;9950;-75
2021/12/13 08:57:08;;;;;;;;;13.00;9.25;;;;;;;;4971390;28;10094;-74
2021/12/13 08:59:36;;;;;;;;;16.75;13.00;;;;;;;;4981030;28;9954;-73
2021/12/13 09:02:08;;;;;;;;;13.25;12.25;;;;;;;;4980213;28;10010;-75
2021/12/13 09:04:40;;;;;;;;;16.50;14.00;;;;;;;;4967697;28;10142;-75
2021/12/13 09:07:11;;;;;;;;;12.00;6.50;;;;;;;;4978432;28;10064;-73
2021/12/13 09:09:43;;;;;;;;;13.25;11.00;;;;;;;;4978412;28;10142;-73
2021/12/13 09:12:14;;;;;;;;;14.25;11.75;;;;;;;;4985905;28;10037;-73
2021/12/13 09:14:45;;;;;;;;;15.75;11.75;;;;;;;;4982643;28;10134;-73
2021/12/13 09:17:21;;;;;;;;;15.75;13.00;;;;;;;;4982099;28;10339;-73
2021/12/13 09:19:54;;;;;;;;;12.75;11.25;;;;;;;;4984669;28;10069;-73
2021/12/13 09:22:24;;;;;;;;;15.25;12.75;;;;;;;;4984811;28;10078;-73
2021/12/13 09:24:55;;;;;;;;;8.50;7.25;;;;;;;;4985562;28;10159;-73
2021/12/13 09:27:32;;;;;;;;;17.25;15.75;;;;;;;;4977004;28;10147;-73
2021/12/13 09:30:16;;;;;;;;;12.75;12.75;;;;;;;;4976627;28;10191;-73
2021/12/13 09:32:47;;;;;;;;;18.00;16.50;;;;;;;;4983781;28;9962;-73
2021/12/13 09:35:41;;;;;;;;;11.75;8.00;;;;;;;;4985538;28;9983;-73
2021/12/13 09:38:38;;;;;;;;;11.75;11.00;;;;;;;;4988890;28;9939;-73
2021/12/13 09:41:24;;;;;;;;;17.00;16.00;;;;;;;;4976370;28;10088;-74
2021/12/13 09:43:54;;;;;;;;;10.75;10.75;;;;;;;;4986618;28;9982;-73
2021/12/13 09:46:30;;;;;;;;;11.00;11.00;;;;;;;;4987131;28;9945;-73
2021/12/13 09:49:00;;;;;;;;;13.50;10.00;;;;;;;;4972741;28;9912;-75
2021/12/13 09:51:32;;;;;;;;;11.25;10.75;;;;;;;;4976566;28;9802;-75
2021/12/13 09:54:06;;;;;;;;;13.75;11.75;;;;;;;;4976896;28;9987;-73
2021/12/13 09:56:37;;;;;;;;;10.75;8.00;;;;;;;;4985062;28;9932;-73
2021/12/13 09:59:13;;;;;;;;;7.75;7.75;;;;;;;;4979021;28;9905;-73
2021/12/13 10:01:41;;;;;;;;;11.50;9.00;;;;;;;;4970821;28;9831;-73
2021/12/13 10:04:11;;;;;;;;;7.75;6.00;;;;;;;;4971030;28;9889;-73
2021/12/13 10:06:45;;;;;;;;;7.75;7.75;;;;;;;;4968320;28;9844;-73
2021/12/13 10:09:16;;;;;;;;;7.25;7.00;;;;;;;;4969843;28;9878;-73
2021/12/13 10:11:49;;;;;;;;;11.50;11.50;;;;;;;;4978470;28;9848;-74
2021/12/13 10:14:21;;;;;;;;;12.25;11.00;;;;;;;;4978163;28;9912;-74
2021/12/13 10:16:55;;;;;;;;;12.00;12.00;;;;;;;;4980877;28;10125;-73
2021/12/13 10:19:27;;;;;;;;;11.00;11.00;;;;;;;;4976448;28;9983;-74
2021/12/13 10:21:56;;;;;;;;;22.50;17.25;;;;;;;;4979245;28;9918;-74
2021/12/13 10:24:28;;;;;;;;;14.75;14.25;;;;;;;;4980297;28;10144;-77
2021/12/13 10:26:58;;;;;;;;;19.75;15.75;;;;;;;;4980637;28;10079;-73
2021/12/13 10:29:26;;;;;;;;;22.00;17.50;;;;;;;;4983378;28;10078;-73
2021/12/13 10:31:57;;;;;;;;;19.75;19.50;;;;;;;;4983467;28;10139;-78
2021/12/13 10:34:28;;;;;;;;;11.00;11.00;;;;;;;;4983305;28;9973;-74
2021/12/13 10:37:00;;;;;;;;;9.75;8.75;;;;;;;;4982188;28;9751;-75
2021/12/13 10:39:29;;;;;;;;;6.25;6.25;;;;;;;;4978456;28;9746;-74
2021/12/13 10:42:00;;;;;;;;;6.50;6.50;;;;;;;;4979774;28;9595;-74
2021/12/13 10:44:30;;;;;;;;;10.75;7.00;;;;;;;;4984107;28;9654;-74
2021/12/13 10:47:02;;;;;;;;;7.00;6.00;;;;;;;;4983491;28;9583;-74
2021/12/13 10:49:31;;;;;;;;;3.00;3.00;;;;;;;;4985079;28;9639;-75
2021/12/13 10:52:03;;;;;;;;;2.00;2.00;;;;;;;;4990899;28;9523;-74
2021/12/13 10:54:34;;;;;;;;;2.33;2.33;;;;;;;;4974470;28;9468;-74
2021/12/13 10:57:08;;;;;;;;;2.00;2.00;;;;;;;;4980739;28;9442;-79
2021/12/13 10:59:36;;;;;;;;;2.00;2.00;;;;;;;;4984084;28;9503;-78
2021/12/13 11:02:09;;;;;;;;;1.00;1.00;;;;;;;;4980241;28;9546;-76
2021/12/13 11:04:39;;;;;;;;;0.67;0.00;;;;;;;;4974391;28;9482;-76
2021/12/13 11:07:11;;;;;;;;;0.00;0.00;;;;;;;;4979918;28;9446;-77
2021/12/13 11:09:40;;;;;;;;;1.00;1.00;;;;;;;;5000259;28;9253;-74
2021/12/13 11:12:11;;;;;;;;;0.00;0.00;;;;;;;;4984503;28;9366;-76
2021/12/13 11:14:42;;;;;;;;;0.67;0.67;;;;;;;;4987060;28;9381;-77
2021/12/13 11:17:13;;;;;;;;;0.00;0.00;;;;;;;;4986616;28;9434;-76
2021/12/13 11:19:43;;;;;;;;;1.00;1.00;;;;;;;;4974344;28;9411;-76
2021/12/13 11:22:14;;;;;;;;;0.00;0.00;;;;;;;;4964206;28;9503;-76
2021/12/13 11:24:45;;;;;;;;;1.00;1.00;;;;;;;;4977831;28;9559;-76
2021/12/13 11:27:16;;;;;;;;;1.75;1.75;;;;;;;;4994165;28;10279;-76
2021/12/13 11:29:44;;;;;;;;;2.00;0.00;;;;;;;;4976093;28;9644;-77
2021/12/13 11:33:04;;;;;;;;;1.50;1.25;;;;;;;;4978412;28;9551;-76
2021/12/13 11:36:15;;;;;;;;;1.25;1.25;;;;;;;;4983800;28;10408;-76
2021/12/13 11:39:26;;;;;;;;;8.75;8.75;;;;;;;;4979616;28;9711;-76
2021/12/13 11:42:41;;;;;;;;;1.00;1.00;;;;;;;;4946559;28;11075;-78
2021/12/13 11:45:38;;;;;;;;;6.75;6.75;;;;;;;;4905958;28;10620;-75
2021/12/13 11:48:42;;;;;;;;;3.50;3.50;;;;;;;;4941102;28;9989;-74
2021/12/13 11:51:44;;;;;;;;;3.00;1.00;;;;;;;;4947403;28;9921;-76
2021/12/13 11:54:43;;;;;;;;;27.00;24.00;;;;;;;;4940595;28;9697;-77
2021/12/13 11:58:04;;;;;;;;;7.50;3.25;;;;;;;;4941401;28;11237;-77
2021/12/13 12:01:01;;;;;;;;;5.75;5.75;;;;;;;;4947206;28;9900;-77
2021/12/13 12:03:55;;;;;;;;;21.00;19.50;;;;;;;;4947954;28;10199;-75
2021/12/13 12:07:11;;;;;;;;;12.75;8.50;;;;;;;;4911318;28;10370;-76
2021/12/13 12:10:08;;;;;;;;;22.25;21.25;;;;;;;;4939157;28;10133;-74
2021/12/13 12:13:01;;;;;;;;;16.25;14.00;;;;;;;;4949948;28;10626;-75
2021/12/13 12:15:28;;;;;;;;;5.50;5.50;;;;;;;;4981180;28;10236;-78
2021/12/13 12:18:02;;;;;;;;;3.00;3.00;;;;;;;;4974255;28;10073;-76
2021/12/13 12:20:31;;;;;;;;;3.00;3.00;;;;;;;;4976250;28;9813;-75
2021/12/13 12:23:01;;;;;;;;;2.00;2.00;;;;;;;;4980007;28;9897;-75
2021/12/13 12:25:31;;;;;;;;;4.00;3.00;;;;;;;;4975548;28;9916;-75
2021/12/13 12:28:01;;;;;;;;;3.00;3.00;;;;;;;;4977890;28;11137;-78
2021/12/13 12:30:33;;;;;;;;;6.25;6.25;;;;;;;;4975157;28;10873;-77
2021/12/13 12:33:07;;;;;;;;;6.00;6.00;;;;;;;;4976690;28;10091;-79
2021/12/13 12:35:38;;;;;;;;;4.25;4.25;;;;;;;;4976413;28;10149;-75
2021/12/13 12:38:26;;;;;;;;;14.50;14.50;;;;;;;;4984341;28;10073;-74
2021/12/13 12:41:40;;;;;;;;;10.75;8.75;;;;;;;;4971419;28;11228;-79
2021/12/13 12:44:08;;;;;;;;;69.75;54.75;;;;;;;;4975391;28;10352;-76
2021/12/13 12:46:41;;;;;;;;;19.50;19.50;;;;;;;;4985935;28;11572;-75
2021/12/13 12:49:15;;;;;;;;;7.00;6.75;;;;;;;;4984612;28;10486;-76
2021/12/13 12:51:44;;;;;;;;;45.50;39.25;;;;;;;;4972052;28;10089;-75
2021/12/13 12:54:13;;;;;;;;;5.25;5.25;;;;;;;;4979961;28;11314;-75
2021/12/13 12:56:43;;;;;;;;;7.00;5.75;;;;;;;;4976535;28;10201;-75
2021/12/13 12:59:13;;;;;;;;;24.00;20.50;;;;;;;;4985586;28;10257;-75
2021/12/13 13:01:42;;;;;;;;;11.75;10.75;;;;;;;;4976240;28;10507;-75
2021/12/13 13:04:17;;;;;;;;;51.00;42.75;;;;;;;;4984510;28;11186;-75
2021/12/13 13:06:58;;;;;;;;;35.25;31.00;;;;;;;;4982815;28;11557;-75
2021/12/13 13:09:44;;;;;;;;;52.00;46.25;;;;;;;;4983629;28;11026;-75
2021/12/13 13:12:14;;;;;;;;;2.75;2.75;;;;;;;;4979406;28;11741;-75
2021/12/13 13:14:47;;;;;;;;;23.25;20.00;;;;;;;;4987281;28;10086;-75
2021/12/13 13:17:15;;;;;;;;;3.00;3.00;;;;;;;;4984618;28;10715;-75
2021/12/13 13:19:46;;;;;;;;;3.00;3.00;;;;;;;;4983298;28;9836;-74
2021/12/13 13:22:15;;;;;;;;;6.25;6.25;;;;;;;;4985227;28;9936;-76
2021/12/13 13:24:47;;;;;;;;;6.25;6.25;;;;;;;;4985391;28;10117;-75
2021/12/13 13:27:15;;;;;;;;;7.75;7.75;;;;;;;;4984558;28;10129;-75
2021/12/13 13:29:43;;;;;;;;;4.00;4.00;;;;;;;;4973501;28;10157;-76
2021/12/13 13:32:12;;;;;;;;;5.50;5.50;;;;;;;;4984048;28;10832;-76
2021/12/13 13:34:43;;;;;;;;;4.00;3.50;;;;;;;;4985755;28;11074;-76
2021/12/13 13:37:14;;;;;;;;;8.00;6.00;;;;;;;;4985520;28;10075;-76
2021/12/13 13:39:46;;;;;;;;;7.50;5.25;;;;;;;;4984806;28;10284;-76
2021/12/13 13:42:17;;;;;;;;;9.00;7.50;;;;;;;;4985477;28;10326;-76
2021/12/13 13:44:48;;;;;;;;;6.75;6.75;;;;;;;;4981879;28;10277;-76
2021/12/13 13:47:19;;;;;;;;;12.00;12.00;;;;;;;;4982619;28;11147;-76
2021/12/13 13:49:48;;;;;;;;;7.50;6.00;;;;;;;;4984510;28;10457;-76
2021/12/13 13:52:20;;;;;;;;;12.25;12.25;;;;;;;;4984680;28;11066;-77
2021/12/13 13:54:52;;;;;;;;;10.50;10.50;;;;;;;;4988158;28;10494;-77
2021/12/13 13:57:23;;;;;;;;;16.25;16.25;;;;;;;;4990991;28;10642;-77
2021/12/13 13:59:52;;;;;;;;;29.00;29.00;;;;;;;;4982360;28;10595;-76
2021/12/13 14:02:24;;;;;;;;;11.25;10.25;;;;;;;;4983095;28;10827;-75
2021/12/13 14:04:57;;;;;;;;;11.25;11.25;;;;;;;;4985448;28;10378;-76
2021/12/13 14:07:31;;;;;;;;;6.50;6.50;;;;;;;;4984972;28;10424;-76
2021/12/13 14:10:03;;;;;;;;;10.25;8.00;;;;;;;;4983915;28;10265;-75
2021/12/13 14:12:33;;;;;;;;;7.75;7.00;;;;;;;;4976134;28;10197;-76
2021/12/13 14:15:08;;;;;;;;;17.50;15.50;;;;;;;;4984680;28;10324;-75
2021/12/13 14:17:42;;;;;;;;;6.50;5.00;;;;;;;;4983063;28;10624;-77
2021/12/13 14:20:35;;;;;;;;;7.00;7.00;;;;;;;;4979114;28;10357;-76
2021/12/13 14:23:18;;;;;;;;;9.00;9.00;;;;;;;;4976477;28;10192;-76
2021/12/13 14:25:48;;;;;;;;;12.00;8.00;;;;;;;;4981950;28;10295;-76
2021/12/13 14:28:24;;;;;;;;;10.50;10.50;;;;;;;;4984132;28;10439;-77
2021/12/13 14:30:53;;;;;;;;;10.00;9.00;;;;;;;;4983928;28;10410;-75
2021/12/13 14:33:23;;;;;;;;;7.00;7.00;;;;;;;;4984201;28;10337;-76
2021/12/13 14:36:03;;;;;;;;;7.25;6.00;;;;;;;;4981053;28;10263;-75
2021/12/13 14:38:31;;;;;;;;;20.75;17.75;;;;;;;;4987486;28;10267;-76
2021/12/13 14:41:00;;;;;;;;;5.50;5.50;;;;;;;;4984064;28;10597;-76
2021/12/13 14:43:30;;;;;;;;;11.50;10.00;;;;;;;;4989401;28;10284;-76
2021/12/13 14:45:59;;;;;;;;;14.50;12.75;;;;;;;;4987903;28;10292;-76
2021/12/13 14:48:29;;;;;;;;;12.50;12.50;;;;;;;;4988648;28;10486;-76
2021/12/13 14:51:02;;;;;;;;;17.00;14.00;;;;;;;;4987290;28;10364;-76
2021/12/13 14:53:32;;;;;;;;;9.50;8.00;;;;;;;;4983576;28;10342;-75
2021/12/13 14:56:03;;;;;;;;;7.25;7.25;;;;;;;;4988596;28;10141;-76
2021/12/13 14:58:38;;;;;;;;;12.00;11.25;;;;;;;;4987299;28;10240;-76
2021/12/13 15:01:07;;;;;;;;;16.50;14.50;;;;;;;;4988021;28;10193;-75
2021/12/13 15:03:38;;;;;;;;;11.25;7.25;;;;;;;;4981631;28;10308;-76
2021/12/13 15:06:10;;;;;;;;;3.00;3.00;;;;;;;;4980748;28;10112;-76
2021/12/13 15:08:40;;;;;;;;;7.25;7.25;;;;;;;;4988598;28;10927;-75
2021/12/13 15:11:13;;;;;;;;;15.75;11.25;;;;;;;;4986703;28;10295;-76
2021/12/13 15:13:44;;;;;;;;;7.00;7.00;;;;;;;;4978094;28;10385;-76
2021/12/13 15:16:14;;;;;;;;;7.75;7.75;;;;;;;;4985606;28;10289;-75